createdAt,value
2023-05-02T00:02:18.962Z,98124.38
2023-05-02T00:05:22.273Z,98110.22
2023-05-02T00:08:26.947Z,98120.28
2023-05-02T00:11:30.136Z,98106.41
2023-05-02T00:14:33.234Z,98115.34
2023-05-02T00:17:36.632Z,98104.84
2023-05-02T00:20:41.143Z,98099.56
2023-05-02T00:23:45.704Z,98100.31
2023-05-02T00:26:48.829Z,98108.06
2023-05-02T00:29:52.326Z,98102.88
2023-05-02T00:32:55.556Z,98104.59
2023-05-02T00:35:58.696Z,98101.91
2023-05-02T00:39:04.223Z,98105.34
2023-05-02T00:42:07.637Z,98101.59
2023-05-02T00:45:12.355Z,98105.72
2023-05-02T00:48:17.865Z,98109.03
2023-05-02T00:51:21.328Z,98107.47
2023-05-02T00:54:25.926Z,98109.56
2023-05-02T00:57:29.066Z,98114.03
2023-05-02T01:00:44.254Z,98113.03
2023-05-02T01:04:02.281Z,98122.97
2023-05-02T01:07:29.329Z,98116.22
2023-05-02T01:10:47.485Z,98095.59
2023-05-02T01:13:54.198Z,98119.63
2023-05-02T01:16:59.757Z,98111.09
2023-05-02T01:20:07.931Z,98116.75
2023-05-02T01:23:18.486Z,98125.28
2023-05-02T01:26:31.410Z,98103.41
2023-05-02T01:29:38.634Z,98122.06
2023-05-02T01:32:44.995Z,98121.47
2023-05-02T01:35:51.710Z,98106.25
2023-05-02T01:38:57.798Z,98121.13
2023-05-02T01:42:04.566Z,98122.13
2023-05-02T01:45:12.089Z,98104.31
2023-05-02T01:48:18.815Z,98118.72
2023-05-02T01:51:23.880Z,98105.84
2023-05-02T01:54:28.396Z,98128.34
2023-05-02T01:57:32.313Z,98128.34
2023-05-02T02:00:38.934Z,98127.03
2023-05-02T02:03:43.830Z,98128.94
2023-05-02T02:06:50.537Z,98130.72
2023-05-02T02:09:53.838Z,98129.88
2023-05-02T02:13:14.967Z,98140.34
2023-05-02T02:16:30.042Z,98115.03
2023-05-02T02:19:34.346Z,98138.88
2023-05-02T02:22:40.996Z,98137.47
2023-05-02T02:25:46.334Z,98130.31
2023-05-02T02:28:52.176Z,98140.72
2023-05-02T02:31:58.261Z,98144.56
2023-05-02T02:35:03.001Z,98138.91
2023-05-02T02:38:15.985Z,98147.75
2023-05-02T02:41:28.419Z,98146.25
2023-05-02T02:44:41.133Z,98143.47
2023-05-02T02:47:52.097Z,98144.56
2023-05-02T02:51:04.607Z,98148.06
2023-05-02T02:54:26.546Z,98159.09
2023-05-02T02:57:45.651Z,98172.78
2023-05-02T03:00:50.398Z,98171.53
2023-05-02T03:03:56.846Z,98181.09
2023-05-02T03:07:03.601Z,98190.53
2023-05-02T03:10:09.609Z,98192.28
2023-05-02T03:13:14.273Z,98198.88
2023-05-02T03:16:38.352Z,98206.09
2023-05-02T03:19:46.313Z,98207.59
2023-05-02T03:22:49.674Z,98216.19
2023-05-02T03:25:53.739Z,98217.03
2023-05-02T03:29:00.458Z,98221.19
2023-05-02T03:34:47.084Z,98220.03
2023-05-02T03:37:50.841Z,98225.81
2023-05-02T03:40:54.306Z,98223.63
2023-05-02T03:43:57.499Z,98216.81
2023-05-02T03:47:02.937Z,98223.44
2023-05-02T03:50:13.419Z,98221.97
2023-05-02T03:53:17.335Z,98220.13
2023-05-02T03:56:28.121Z,98228.81
2023-05-02T03:59:47.254Z,98237.13
2023-05-02T04:03:02.700Z,98234.31
2023-05-02T04:06:08.980Z,98242.03
2023-05-02T04:09:12.300Z,98248.72
2023-05-02T04:12:22.931Z,98245.97
2023-05-02T04:15:28.586Z,98254.66
2023-05-02T04:18:32.169Z,98256.22
2023-05-02T04:21:39.149Z,98255.19
2023-05-02T04:24:43.423Z,98260.97
2023-05-02T04:27:46.661Z,98257.28
2023-05-02T04:30:53.738Z,98264.44
2023-05-02T04:33:59.567Z,98270.94
2023-05-02T04:37:08.461Z,98278.22
2023-05-02T04:40:13.429Z,98278.25
2023-05-02T04:43:16.660Z,98282.34
2023-05-02T04:46:25.580Z,98285.00
2023-05-02T04:49:29.269Z,98229.19
2023-05-02T04:52:33.783Z,98281.66
2023-05-02T04:55:37.018Z,98297.25
2023-05-02T04:58:40.944Z,98295.19
2023-05-02T05:01:46.272Z,98299.97
2023-05-02T05:04:49.591Z,98294.56
2023-05-02T05:07:55.498Z,98311.47
2023-05-02T05:11:01.767Z,98307.50
2023-05-02T05:14:05.106Z,98302.19
2023-05-02T05:17:10.904Z,98311.31
2023-05-02T05:20:14.889Z,98305.97
2023-05-02T05:23:19.952Z,98318.19
2023-05-02T05:26:23.751Z,98314.88
2023-05-02T05:29:28.276Z,98314.59
2023-05-02T05:32:31.624Z,98321.41
2023-05-02T05:35:35.179Z,98320.09
2023-05-02T05:38:40.636Z,98315.69
2023-05-02T05:41:46.291Z,98324.25
2023-05-02T05:44:50.260Z,98317.56
2023-05-02T05:47:55.225Z,98302.44
2023-05-02T05:51:04.800Z,98328.41
2023-05-02T05:54:09.771Z,98335.25
2023-05-02T05:57:14.106Z,98334.91
2023-05-02T06:00:19.032Z,98339.28
2023-05-02T06:03:26.480Z,98327.25
2023-05-02T06:06:30.014Z,98336.94
2023-05-02T06:09:34.625Z,98332.59
2023-05-02T06:12:37.964Z,98346.84
2023-05-02T06:15:42.220Z,98352.75
2023-05-02T06:18:45.526Z,98356.28
2023-05-02T06:21:50.798Z,98365.78
2023-05-02T06:24:55.767Z,98368.97
2023-05-02T06:27:58.978Z,98373.41
2023-05-02T06:31:03.499Z,98384.09
2023-05-02T06:34:07.866Z,98386.88
2023-05-02T06:37:11.175Z,98392.03
2023-05-02T06:40:16.029Z,98396.81
2023-05-02T06:43:19.441Z,98386.44
2023-05-02T06:46:23.179Z,98400.72
2023-05-02T06:49:27.126Z,98408.03
2023-05-02T06:52:30.343Z,98402.31
2023-05-02T06:55:35.336Z,98409.19
2023-05-02T06:58:38.553Z,98410.53
2023-05-02T07:01:41.933Z,98409.13
2023-05-02T07:04:45.499Z,98417.06
2023-05-02T07:07:48.815Z,98425.13
2023-05-02T07:10:53.379Z,98428.97
2023-05-02T07:13:56.559Z,98439.91
2023-05-02T07:16:59.831Z,98435.88
2023-05-02T07:20:03.906Z,98441.34
2023-05-02T07:23:07.489Z,98434.97
2023-05-02T07:26:12.065Z,98452.59
2023-05-02T07:29:15.238Z,98447.19
2023-05-02T07:32:18.718Z,98450.13
2023-05-02T07:35:22.569Z,98444.16
2023-05-02T07:38:25.824Z,98448.50
2023-05-02T07:41:30.672Z,98445.00
2023-05-02T07:44:34.967Z,98453.06
2023-05-02T07:47:38.193Z,98458.44
2023-05-02T07:50:41.660Z,98450.19
2023-05-02T07:53:44.810Z,98463.69
2023-05-02T07:56:49.889Z,98464.47
2023-05-02T07:59:53.427Z,98473.72
2023-05-02T08:02:56.704Z,98484.47
2023-05-02T08:06:02.025Z,98494.19
2023-05-02T08:09:05.389Z,98497.38
2023-05-02T08:12:10.031Z,98504.13
2023-05-02T08:15:13.968Z,98514.97
2023-05-02T08:18:17.201Z,98518.66
2023-05-02T08:21:20.589Z,98521.56
2023-05-02T08:24:23.789Z,98515.38
2023-05-02T08:27:28.798Z,98517.28
2023-05-02T08:30:32.068Z,98522.75
2023-05-02T08:33:35.241Z,98521.66
2023-05-02T08:36:38.511Z,98520.97
2023-05-02T08:39:41.623Z,98513.47
2023-05-02T08:42:46.170Z,98516.75
2023-05-02T08:45:53.775Z,98507.09
2023-05-02T08:48:58.987Z,98506.69
2023-05-02T08:52:03.114Z,98506.97
2023-05-02T08:55:08.563Z,98492.69
2023-05-02T08:58:14.738Z,98508.47
2023-05-02T09:01:23.537Z,98512.63
2023-05-02T09:04:32.747Z,98518.53
2023-05-02T09:07:45.654Z,98497.03
2023-05-02T09:10:49.250Z,98519.53
2023-05-02T09:13:58.814Z,98512.16
2023-05-02T09:17:02.719Z,98503.44
2023-05-02T09:20:12.640Z,98514.06
2023-05-02T09:23:15.864Z,98508.97
2023-05-02T09:26:21.104Z,98504.56
2023-05-02T09:29:25.684Z,98509.31
2023-05-02T09:35:05.896Z,98504.69
2023-05-02T09:38:21.015Z,98502.69
2023-05-02T09:41:24.281Z,98502.28
2023-05-02T09:44:28.620Z,98498.31
2023-05-02T09:47:31.831Z,98496.69
2023-05-02T09:50:38.732Z,98493.09
2023-05-02T09:53:45.368Z,98496.78
2023-05-02T09:56:56.501Z,98493.97
2023-05-02T09:59:59.922Z,98501.63
2023-05-02T10:03:05.170Z,98495.72
2023-05-02T10:06:10.260Z,98499.88
2023-05-02T10:09:19.599Z,98457.53
2023-05-02T10:12:27.722Z,98510.66
2023-05-02T10:15:32.431Z,98516.53
2023-05-02T10:18:43.458Z,98508.31
2023-05-02T10:21:48.477Z,98488.78
2023-05-02T10:24:51.753Z,98507.81
2023-05-02T10:27:57.677Z,98493.75
2023-05-02T10:31:02.866Z,98506.63
2023-05-02T10:34:10.574Z,98505.09
2023-05-02T10:37:16.860Z,98501.72
2023-05-02T10:40:20.159Z,98498.97
2023-05-02T10:43:25.803Z,98500.88
2023-05-02T10:46:33.237Z,98468.41
2023-05-02T10:49:50.959Z,98492.16
2023-05-02T10:52:55.558Z,98481.53
2023-05-02T10:56:21.116Z,98483.88
2023-05-02T10:59:29.044Z,98411.59
2023-05-02T11:02:51.574Z,98453.44
2023-05-02T11:06:12.915Z,98470.41
2023-05-02T11:09:36.926Z,98470.94
2023-05-02T11:12:47.907Z,98470.00
2023-05-02T11:15:57.925Z,98456.28
2023-05-02T11:19:02.169Z,98452.00
2023-05-02T11:22:32.506Z,98455.53
2023-05-02T11:25:43.407Z,98457.63
2023-05-02T11:28:48.142Z,98460.38
2023-05-02T11:31:55.618Z,98457.25
2023-05-02T11:34:59.341Z,98380.19
2023-05-02T11:38:04.897Z,98455.25
2023-05-02T11:41:09.965Z,98453.03
2023-05-02T11:44:13.173Z,98449.00
2023-05-02T11:47:16.499Z,98371.50
2023-05-02T11:50:20.085Z,98448.09
2023-05-02T11:53:25.556Z,98440.09
2023-05-02T11:56:30.229Z,98445.28
2023-05-02T11:59:50.763Z,98439.47
2023-05-02T12:02:54.488Z,98473.34
2023-05-02T12:05:58.519Z,98468.50
2023-05-02T12:09:09.065Z,98404.03
2023-05-02T12:12:14.053Z,98447.22
2023-05-02T12:15:18.221Z,98445.25
2023-05-02T12:18:24.140Z,98470.94
2023-05-02T12:21:29.255Z,98492.13
2023-05-02T12:24:32.709Z,98490.78
2023-05-02T12:27:38.050Z,98460.09
2023-05-02T12:30:41.795Z,98405.38
2023-05-02T12:33:45.321Z,98489.13
2023-05-02T12:36:48.581Z,98500.63
2023-05-02T12:39:52.675Z,98500.88
2023-05-02T12:43:03.956Z,98506.50
2023-05-02T12:46:11.525Z,98481.06
2023-05-02T12:49:14.726Z,98513.84
2023-05-02T12:52:17.992Z,98518.84
2023-05-02T12:55:24.311Z,98496.16
2023-05-02T12:58:29.357Z,98535.50
2023-05-02T13:01:34.471Z,98544.81
2023-05-02T13:04:39.078Z,98570.09
2023-05-02T13:07:42.260Z,98575.75
2023-05-02T13:10:45.442Z,98591.91
2023-05-02T13:13:50.057Z,98555.91
2023-05-02T13:16:55.425Z,98601.47
2023-05-02T13:20:01.961Z,98533.84
2023-05-02T13:23:07.353Z,98613.72
2023-05-02T13:26:10.611Z,98622.25
2023-05-02T13:29:15.125Z,98593.47
2023-05-02T13:32:18.866Z,98610.13
2023-05-02T13:35:22.158Z,98612.13
2023-05-02T13:38:25.375Z,98601.91
2023-05-02T13:41:28.868Z,98608.31
2023-05-02T13:44:33.761Z,98600.97
2023-05-02T13:47:38.762Z,98617.75
2023-05-02T13:50:42.706Z,98609.75
2023-05-02T13:53:45.946Z,98613.66
2023-05-02T13:56:49.119Z,98605.94
2023-05-02T13:59:53.708Z,98610.13
2023-05-02T14:02:57.104Z,98599.31
2023-05-02T14:06:00.523Z,98566.94
2023-05-02T14:09:04.030Z,98564.66
2023-05-02T14:12:08.217Z,98556.50
2023-05-02T14:15:13.466Z,98531.81
2023-05-02T14:18:17.296Z,98546.91
2023-05-02T14:21:20.836Z,98550.53
2023-05-02T14:24:24.129Z,98542.47
2023-05-02T14:27:27.582Z,98544.06
2023-05-02T14:30:32.538Z,98523.69
2023-05-02T14:33:35.911Z,98535.38
2023-05-02T14:36:39.116Z,98539.59
2023-05-02T14:39:44.784Z,98541.59
2023-05-02T14:42:48.382Z,98486.72
2023-05-02T14:45:52.872Z,98523.53
2023-05-02T14:48:56.038Z,98540.84
2023-05-02T14:51:59.176Z,98535.19
2023-05-02T14:55:03.136Z,98536.75
2023-05-02T14:58:07.436Z,98538.31
2023-05-02T15:01:18.476Z,98530.66
2023-05-02T15:04:22.159Z,98544.59
2023-05-02T15:07:26.080Z,98540.72
2023-05-02T15:10:29.822Z,98543.34
2023-05-02T15:13:33.104Z,98540.72
2023-05-02T15:16:39.216Z,98541.13
2023-05-02T15:19:42.401Z,98541.13
2023-05-02T15:22:45.719Z,98538.38
2023-05-02T15:25:49.052Z,98544.47
2023-05-02T15:28:52.422Z,98536.28
2023-05-02T15:34:46.843Z,98535.69
2023-05-02T15:37:50.001Z,98536.34
2023-05-02T15:40:57.214Z,98519.38
2023-05-02T15:44:01.085Z,98545.56
2023-05-02T15:47:04.734Z,98537.84
2023-05-02T15:50:12.608Z,98542.56
2023-05-02T15:53:16.639Z,98535.03
2023-05-02T15:56:21.109Z,98550.91
2023-05-02T15:59:24.288Z,98529.69
2023-05-02T16:02:27.463Z,98522.50
2023-05-02T16:05:32.011Z,98536.75
2023-05-02T16:08:35.346Z,98543.75
2023-05-02T16:11:38.475Z,98537.88
2023-05-02T16:14:41.714Z,98535.59
2023-05-02T16:17:44.951Z,98540.38
2023-05-02T16:20:50.092Z,98543.19
2023-05-02T16:23:53.288Z,98538.94
2023-05-02T16:26:56.531Z,98527.66
2023-05-02T16:30:00.099Z,98548.50
2023-05-02T16:33:03.852Z,98548.09
2023-05-02T16:36:09.422Z,98523.75
2023-05-02T16:39:12.666Z,98544.75
2023-05-02T16:42:15.804Z,98549.97
2023-05-02T16:45:18.937Z,98544.19
2023-05-02T16:48:22.936Z,98542.75
2023-05-02T16:51:27.957Z,98551.34
2023-05-02T16:54:31.084Z,98548.13
2023-05-02T16:57:34.305Z,98551.88
2023-05-02T17:00:38.484Z,98521.91
2023-05-02T17:03:41.835Z,98555.75
2023-05-02T17:06:47.624Z,98554.03
2023-05-02T17:09:50.865Z,98564.03
2023-05-02T17:12:55.921Z,98559.44
2023-05-02T17:15:59.922Z,98557.59
2023-05-02T17:19:03.176Z,98567.84
2023-05-02T17:22:08.448Z,98567.69
2023-05-02T17:25:11.740Z,98572.78
2023-05-02T17:28:15.321Z,98583.44
2023-05-02T17:31:18.912Z,98576.63
2023-05-02T17:34:26.585Z,98581.81
2023-05-02T17:37:31.116Z,98589.97
2023-05-02T17:40:35.995Z,98601.56
2023-05-02T17:43:42.320Z,98611.56
2023-05-02T17:46:46.623Z,98618.25
2023-05-02T17:49:51.250Z,98618.38
2023-05-02T17:52:56.158Z,98629.78
2023-05-02T17:55:59.368Z,98646.72
2023-05-02T17:59:02.541Z,98647.31
2023-05-02T18:02:07.091Z,98647.00
2023-05-02T18:05:12.742Z,98649.53
2023-05-02T18:08:17.538Z,98645.69
2023-05-02T18:11:22.230Z,98616.59
2023-05-02T18:14:25.515Z,98647.38
2023-05-02T18:17:29.245Z,98663.22
2023-05-02T18:20:32.736Z,98668.41
2023-05-02T18:23:37.254Z,98662.13
2023-05-02T18:26:40.503Z,98673.72
2023-05-02T18:29:44.028Z,98673.72
2023-05-02T18:32:47.456Z,98687.47
2023-05-02T18:35:50.887Z,98690.41
2023-05-02T18:38:55.875Z,98680.72
2023-05-02T18:41:59.494Z,98694.22
2023-05-02T18:45:04.070Z,98691.47
2023-05-02T18:48:08.982Z,98698.03
2023-05-02T18:51:12.165Z,98711.63
2023-05-02T18:54:16.611Z,98698.75
2023-05-02T18:57:19.763Z,98710.38
2023-05-02T19:00:24.333Z,98711.34
2023-05-02T19:03:27.703Z,98710.13
2023-05-02T19:06:31.573Z,98713.41
2023-05-02T19:09:36.112Z,98713.25
2023-05-02T19:12:39.915Z,98719.06
2023-05-02T19:15:44.459Z,98720.75
2023-05-02T19:18:51.506Z,98735.84
2023-05-02T19:21:54.786Z,98736.38
2023-05-02T19:24:59.466Z,98741.16
2023-05-02T19:28:02.747Z,98745.56
2023-05-02T19:31:09.311Z,98758.41
2023-05-02T19:34:12.544Z,98751.09
2023-05-02T19:37:15.727Z,98762.28
2023-05-02T19:40:20.322Z,98761.34
2023-05-02T19:43:23.687Z,98766.13
2023-05-02T19:46:27.101Z,98772.28
2023-05-02T19:49:30.279Z,98783.00
2023-05-02T19:52:34.360Z,98692.22
2023-05-02T19:55:39.223Z,98792.63
2023-05-02T19:58:42.478Z,98793.56
2023-05-02T20:01:46.643Z,98802.59
2023-05-02T20:04:50.237Z,98806.16
2023-05-02T20:07:53.441Z,98813.75
2023-05-02T20:10:57.933Z,98814.38
2023-05-02T20:14:01.303Z,98811.19
2023-05-02T20:17:04.692Z,98822.16
2023-05-02T20:20:11.879Z,98829.25
2023-05-02T20:23:15.984Z,98841.78
2023-05-02T20:26:21.084Z,98851.72
2023-05-02T20:29:24.732Z,98848.91
2023-05-02T20:32:27.993Z,98846.38
2023-05-02T20:35:31.499Z,98850.88
2023-05-02T20:38:34.671Z,98844.44
2023-05-02T20:41:39.743Z,98854.78
2023-05-02T20:44:45.664Z,98860.41
2023-05-02T20:47:49.167Z,98848.34
2023-05-02T20:50:53.815Z,98827.59
2023-05-02T20:53:58.169Z,98854.38
2023-05-02T20:57:03.560Z,98846.41
2023-05-02T21:00:11.349Z,98857.16
2023-05-02T21:03:14.694Z,98857.75
2023-05-02T21:06:19.674Z,98850.06
2023-05-02T21:09:23.397Z,98835.97
2023-05-02T21:12:28.540Z,98855.56
2023-05-02T21:15:36.262Z,98856.97
2023-05-02T21:18:39.992Z,98845.16
2023-05-02T21:21:43.252Z,98826.19
2023-05-02T21:24:48.210Z,98837.34
2023-05-02T21:27:53.336Z,98840.53
2023-05-02T21:34:46.705Z,98835.47
2023-05-02T21:37:50.097Z,98842.22
2023-05-02T21:40:53.632Z,98848.31
2023-05-02T21:43:56.875Z,98867.41
2023-05-02T21:47:00.083Z,98870.00
2023-05-02T21:50:05.408Z,98881.66
2023-05-02T21:53:09.222Z,98886.50
2023-05-02T21:56:12.545Z,98893.22
2023-05-02T21:59:15.706Z,98894.03
2023-05-02T22:02:18.934Z,98890.53
2023-05-02T22:05:23.419Z,98894.81
2023-05-02T22:08:27.249Z,98892.75
2023-05-02T22:11:31.657Z,98895.81
2023-05-02T22:14:44.377Z,98904.13
2023-05-02T22:17:49.035Z,98896.66
2023-05-02T22:20:54.084Z,98908.94
2023-05-02T22:23:57.691Z,98908.69
2023-05-02T22:27:00.869Z,98906.25
2023-05-02T22:30:04.928Z,98907.63
2023-05-02T22:33:09.267Z,98913.63
2023-05-02T22:36:13.803Z,98915.69
2023-05-02T22:39:16.971Z,98919.06
2023-05-02T22:42:20.255Z,98922.72
2023-05-02T22:45:23.487Z,98909.78
2023-05-02T22:48:26.695Z,98915.81
2023-05-02T22:51:31.338Z,98932.16
2023-05-02T22:54:34.402Z,98932.78
2023-05-02T22:57:37.609Z,98925.53
2023-05-02T23:00:40.716Z,98928.63
2023-05-02T23:03:43.900Z,98926.03
2023-05-02T23:06:48.834Z,98925.22
2023-05-02T23:09:51.931Z,98935.09
2023-05-02T23:12:56.035Z,98938.06
2023-05-02T23:15:59.401Z,98924.75
2023-05-02T23:19:02.605Z,98915.31
2023-05-02T23:22:07.117Z,98937.03
2023-05-02T23:25:11.758Z,98932.91
2023-05-02T23:28:14.922Z,98941.34
2023-05-02T23:31:18.122Z,98944.00
2023-05-02T23:34:21.876Z,98943.72
2023-05-02T23:37:28.091Z,98943.63
2023-05-02T23:40:32.647Z,98942.59
2023-05-02T23:43:35.823Z,98942.16
2023-05-02T23:46:39.602Z,98943.25
2023-05-02T23:49:42.776Z,98942.59
2023-05-02T23:52:47.370Z,98938.59
2023-05-02T23:55:50.582Z,98949.56
2023-05-02T23:58:53.710Z,98944.69
